sensor_id;sensor_type;location;lat;lon;timestamp;temperature;humidity
21815;DHT22;11069;48.988;8.450;2023-09-19T00:01:06;16.30;99.90
21815;DHT22;11069;48.988;8.450;2023-09-19T00:03:37;16.30;99.90
21815;DHT22;11069;48.988;8.450;2023-09-19T00:06:04;16.30;99.90
21815;DHT22;11069;48.988;8.450;2023-09-19T00:08:31;16.30;99.90
21815;DHT22;11069;48.988;8.450;2023-09-19T00:10:58;16.30;99.90
21815;DHT22;11069;48.988;8.450;2023-09-19T00:13:34;16.30;99.90
21815;DHT22;11069;48.988;8.450;2023-09-19T00:16:01;16.30;99.90
21815;DHT22;11069;48.988;8.450;2023-09-19T00:18:33;16.20;99.90
21815;DHT22;11069;48.988;8.450;2023-09-19T00:21:00;16.20;99.90
21815;DHT22;11069;48.988;8.450;2023-09-19T00:23:26;16.20;99.90
21815;DHT22;11069;48.988;8.450;2023-09-19T00:25:52;16.30;99.90
21815;DHT22;11069;48.988;8.450;2023-09-19T00:28:22;16.20;99.90
21815;DHT22;11069;48.988;8.450;2023-09-19T00:30:52;16.30;99.90
21815;DHT22;11069;48.988;8.450;2023-09-19T00:33:20;16.30;99.90
21815;DHT22;11069;48.988;8.450;2023-09-19T00:35:50;16.30;99.90
21815;DHT22;11069;48.988;8.450;2023-09-19T00:38:16;16.20;99.90
21815;DHT22;11069;48.988;8.450;2023-09-19T00:40:46;16.30;99.90
21815;DHT22;11069;48.988;8.450;2023-09-19T00:43:11;16.20;99.90
21815;DHT22;11069;48.988;8.450;2023-09-19T00:45:38;16.30;99.90
21815;DHT22;11069;48.988;8.450;2023-09-19T00:48:04;16.30;99.90
21815;DHT22;11069;48.988;8.450;2023-09-19T00:50:38;16.30;99.90
21815;DHT22;11069;48.988;8.450;2023-09-19T00:53:07;16.30;99.90
21815;DHT22;11069;48.988;8.450;2023-09-19T00:55:38;16.30;99.90
21815;DHT22;11069;48.988;8.450;2023-09-19T00:58:04;16.40;99.90
21815;DHT22;11069;48.988;8.450;2023-09-19T01:00:35;16.40;99.90
21815;DHT22;11069;48.988;8.450;2023-09-19T01:03:01;16.40;99.90
21815;DHT22;11069;48.988;8.450;2023-09-19T01:05:30;16.50;99.90
21815;DHT22;11069;48.988;8.450;2023-09-19T01:07:56;16.40;99.90
21815;DHT22;11069;48.988;8.450;2023-09-19T01:10:31;16.50;99.90
21815;DHT22;11069;48.988;8.450;2023-09-19T01:13:29;16.50;99.90
21815;DHT22;11069;48.988;8.450;2023-09-19T01:16:12;16.60;99.90
21815;DHT22;11069;48.988;8.450;2023-09-19T01:24:46;16.60;99.90
21815;DHT22;11069;48.988;8.450;2023-09-19T01:30:27;16.60;99.90
21815;DHT22;11069;48.988;8.450;2023-09-19T01:32:58;16.60;99.90
21815;DHT22;11069;48.988;8.450;2023-09-19T01:35:24;16.70;99.90
21815;DHT22;11069;48.988;8.450;2023-09-19T01:37:50;16.70;99.90
21815;DHT22;11069;48.988;8.450;2023-09-19T01:40:18;16.80;99.90
21815;DHT22;11069;48.988;8.450;2023-09-19T01:46:19;16.80;99.90
21815;DHT22;11069;48.988;8.450;2023-09-19T01:51:48;16.70;99.90
21815;DHT22;11069;48.988;8.450;2023-09-19T01:54:27;16.80;99.90
21815;DHT22;11069;48.988;8.450;2023-09-19T01:57:03;16.80;99.90
21815;DHT22;11069;48.988;8.450;2023-09-19T01:59:43;16.80;99.90
21815;DHT22;11069;48.988;8.450;2023-09-19T02:02:12;16.80;99.90
21815;DHT22;11069;48.988;8.450;2023-09-19T02:04:37;16.80;99.90
21815;DHT22;11069;48.988;8.450;2023-09-19T02:07:03;16.80;99.90
21815;DHT22;11069;48.988;8.450;2023-09-19T02:09:31;16.90;99.90
21815;DHT22;11069;48.988;8.450;2023-09-19T02:12:01;16.90;99.90
21815;DHT22;11069;48.988;8.450;2023-09-19T02:14:27;16.90;99.90
21815;DHT22;11069;48.988;8.450;2023-09-19T02:16:53;16.90;99.90
21815;DHT22;11069;48.988;8.450;2023-09-19T02:19:19;16.90;99.90
21815;DHT22;11069;48.988;8.450;2023-09-19T02:21:46;16.90;99.90
21815;DHT22;11069;48.988;8.450;2023-09-19T02:24:14;16.90;99.90
21815;DHT22;11069;48.988;8.450;2023-09-19T02:26:41;16.90;99.90
21815;DHT22;11069;48.988;8.450;2023-09-19T02:29:06;16.90;99.90
21815;DHT22;11069;48.988;8.450;2023-09-19T02:31:32;16.90;99.90
21815;DHT22;11069;48.988;8.450;2023-09-19T02:33:58;17.00;99.90
21815;DHT22;11069;48.988;8.450;2023-09-19T02:36:25;17.00;99.90
21815;DHT22;11069;48.988;8.450;2023-09-19T02:38:51;17.00;99.90
21815;DHT22;11069;48.988;8.450;2023-09-19T02:41:17;16.90;99.90
21815;DHT22;11069;48.988;8.450;2023-09-19T02:43:42;16.90;99.90
21815;DHT22;11069;48.988;8.450;2023-09-19T02:46:09;16.80;99.90
21815;DHT22;11069;48.988;8.450;2023-09-19T02:48:36;16.80;99.90
21815;DHT22;11069;48.988;8.450;2023-09-19T02:51:02;16.80;99.90
21815;DHT22;11069;48.988;8.450;2023-09-19T02:53:30;16.80;99.90
21815;DHT22;11069;48.988;8.450;2023-09-19T02:55:57;16.80;99.90
21815;DHT22;11069;48.988;8.450;2023-09-19T02:58:24;16.90;99.90
21815;DHT22;11069;48.988;8.450;2023-09-19T03:00:50;16.90;99.90
21815;DHT22;11069;48.988;8.450;2023-09-19T03:03:17;16.90;99.90
21815;DHT22;11069;48.988;8.450;2023-09-19T03:05:43;16.90;99.90
21815;DHT22;11069;48.988;8.450;2023-09-19T03:08:13;16.90;99.90
21815;DHT22;11069;48.988;8.450;2023-09-19T03:10:42;16.90;99.90
21815;DHT22;11069;48.988;8.450;2023-09-19T03:13:08;16.90;99.90
21815;DHT22;11069;48.988;8.450;2023-09-19T03:15:36;16.90;99.90
21815;DHT22;11069;48.988;8.450;2023-09-19T03:18:04;16.90;99.90
21815;DHT22;11069;48.988;8.450;2023-09-19T03:20:30;16.80;99.90
21815;DHT22;11069;48.988;8.450;2023-09-19T03:22:56;16.80;99.90
21815;DHT22;11069;48.988;8.450;2023-09-19T03:25:22;16.80;99.90
21815;DHT22;11069;48.988;8.450;2023-09-19T03:27:48;16.80;99.90
21815;DHT22;11069;48.988;8.450;2023-09-19T03:30:14;16.80;99.90
21815;DHT22;11069;48.988;8.450;2023-09-19T03:32:49;16.70;99.90
21815;DHT22;11069;48.988;8.450;2023-09-19T03:35:16;16.70;99.90
21815;DHT22;11069;48.988;8.450;2023-09-19T03:37:42;16.70;99.90
21815;DHT22;11069;48.988;8.450;2023-09-19T03:40:11;16.70;99.90
21815;DHT22;11069;48.988;8.450;2023-09-19T03:42:40;16.60;99.90
21815;DHT22;11069;48.988;8.450;2023-09-19T03:45:08;16.60;99.90
21815;DHT22;11069;48.988;8.450;2023-09-19T03:47:38;16.60;99.90
21815;DHT22;11069;48.988;8.450;2023-09-19T03:50:05;16.60;99.90
21815;DHT22;11069;48.988;8.450;2023-09-19T03:52:31;16.50;99.90
21815;DHT22;11069;48.988;8.450;2023-09-19T03:54:57;16.50;99.90
21815;DHT22;11069;48.988;8.450;2023-09-19T03:57:23;16.60;99.90
21815;DHT22;11069;48.988;8.450;2023-09-19T03:59:48;16.60;99.90
21815;DHT22;11069;48.988;8.450;2023-09-19T04:02:14;16.50;99.90
21815;DHT22;11069;48.988;8.450;2023-09-19T04:04:51;16.60;99.90
21815;DHT22;11069;48.988;8.450;2023-09-19T04:07:17;16.60;99.90
21815;DHT22;11069;48.988;8.450;2023-09-19T04:09:44;16.60;99.90
21815;DHT22;11069;48.988;8.450;2023-09-19T04:12:11;16.70;99.90
21815;DHT22;11069;48.988;8.450;2023-09-19T04:14:37;16.70;99.90
21815;DHT22;11069;48.988;8.450;2023-09-19T04:17:03;16.60;99.90
21815;DHT22;11069;48.988;8.450;2023-09-19T04:19:30;16.60;99.90
21815;DHT22;11069;48.988;8.450;2023-09-19T04:21:56;16.60;99.90
21815;DHT22;11069;48.988;8.450;2023-09-19T04:24:21;16.60;99.90
21815;DHT22;11069;48.988;8.450;2023-09-19T04:26:47;16.60;99.90
21815;DHT22;11069;48.988;8.450;2023-09-19T04:29:13;16.60;99.90
21815;DHT22;11069;48.988;8.450;2023-09-19T04:31:39;16.70;99.90
21815;DHT22;11069;48.988;8.450;2023-09-19T04:34:08;16.70;99.90
21815;DHT22;11069;48.988;8.450;2023-09-19T04:36:35;16.70;99.90
21815;DHT22;11069;48.988;8.450;2023-09-19T04:39:02;16.70;99.90
21815;DHT22;11069;48.988;8.450;2023-09-19T04:41:30;16.80;99.90
21815;DHT22;11069;48.988;8.450;2023-09-19T04:43:56;16.80;99.90
21815;DHT22;11069;48.988;8.450;2023-09-19T04:46:21;16.80;99.90
21815;DHT22;11069;48.988;8.450;2023-09-19T04:48:47;16.70;99.90
21815;DHT22;11069;48.988;8.450;2023-09-19T04:51:14;16.80;99.90
21815;DHT22;11069;48.988;8.450;2023-09-19T04:53:40;16.70;99.90
21815;DHT22;11069;48.988;8.450;2023-09-19T04:56:06;16.70;99.90
21815;DHT22;11069;48.988;8.450;2023-09-19T04:58:33;16.70;99.90
21815;DHT22;11069;48.988;8.450;2023-09-19T05:00:59;16.70;99.90
21815;DHT22;11069;48.988;8.450;2023-09-19T05:03:25;16.70;99.90
21815;DHT22;11069;48.988;8.450;2023-09-19T05:05:50;16.60;99.90
21815;DHT22;11069;48.988;8.450;2023-09-19T05:08:16;16.60;99.90
21815;DHT22;11069;48.988;8.450;2023-09-19T05:10:42;16.60;99.90
21815;DHT22;11069;48.988;8.450;2023-09-19T05:13:07;16.60;99.90
21815;DHT22;11069;48.988;8.450;2023-09-19T05:15:33;16.50;99.90
21815;DHT22;11069;48.988;8.450;2023-09-19T05:18:01;16.50;99.90
21815;DHT22;11069;48.988;8.450;2023-09-19T05:20:26;16.50;99.90
21815;DHT22;11069;48.988;8.450;2023-09-19T05:23:02;16.50;99.90
21815;DHT22;11069;48.988;8.450;2023-09-19T05:25:31;16.40;99.90
21815;DHT22;11069;48.988;8.450;2023-09-19T05:27:58;16.40;99.90
21815;DHT22;11069;48.988;8.450;2023-09-19T05:30:27;16.40;99.90
21815;DHT22;11069;48.988;8.450;2023-09-19T05:32:54;16.40;99.90
21815;DHT22;11069;48.988;8.450;2023-09-19T05:35:33;16.40;99.90
21815;DHT22;11069;48.988;8.450;2023-09-19T05:38:08;16.40;99.90
21815;DHT22;11069;48.988;8.450;2023-09-19T05:40:35;16.30;99.90
21815;DHT22;11069;48.988;8.450;2023-09-19T05:43:01;16.30;99.90
21815;DHT22;11069;48.988;8.450;2023-09-19T05:45:29;16.40;99.90
21815;DHT22;11069;48.988;8.450;2023-09-19T05:47:54;16.40;99.90
21815;DHT22;11069;48.988;8.450;2023-09-19T05:50:29;16.40;99.90
21815;DHT22;11069;48.988;8.450;2023-09-19T05:52:55;16.40;99.90
21815;DHT22;11069;48.988;8.450;2023-09-19T05:55:23;16.40;99.90
21815;DHT22;11069;48.988;8.450;2023-09-19T05:57:52;16.40;99.90
21815;DHT22;11069;48.988;8.450;2023-09-19T06:00:22;16.50;99.90
21815;DHT22;11069;48.988;8.450;2023-09-19T06:02:52;16.50;99.90
21815;DHT22;11069;48.988;8.450;2023-09-19T06:05:18;16.40;99.90
21815;DHT22;11069;48.988;8.450;2023-09-19T06:07:44;16.50;99.90
21815;DHT22;11069;48.988;8.450;2023-09-19T06:10:09;16.40;99.90
21815;DHT22;11069;48.988;8.450;2023-09-19T06:12:42;16.50;99.90
21815;DHT22;11069;48.988;8.450;2023-09-19T06:15:11;16.50;99.90
21815;DHT22;11069;48.988;8.450;2023-09-19T06:17:54;16.50;99.90
21815;DHT22;11069;48.988;8.450;2023-09-19T06:20:25;16.40;99.90
21815;DHT22;11069;48.988;8.450;2023-09-19T06:22:53;16.40;99.90
21815;DHT22;11069;48.988;8.450;2023-09-19T06:25:19;16.40;99.90
21815;DHT22;11069;48.988;8.450;2023-09-19T06:27:54;16.40;99.90
21815;DHT22;11069;48.988;8.450;2023-09-19T06:30:22;16.40;99.90
21815;DHT22;11069;48.988;8.450;2023-09-19T06:32:49;16.40;99.90
21815;DHT22;11069;48.988;8.450;2023-09-19T06:35:16;16.50;99.90
21815;DHT22;11069;48.988;8.450;2023-09-19T06:37:42;16.50;99.90
21815;DHT22;11069;48.988;8.450;2023-09-19T06:40:09;16.50;99.90
21815;DHT22;11069;48.988;8.450;2023-09-19T06:42:43;16.50;99.90
21815;DHT22;11069;48.988;8.450;2023-09-19T06:45:11;16.50;99.90
21815;DHT22;11069;48.988;8.450;2023-09-19T06:47:39;16.60;99.90
21815;DHT22;11069;48.988;8.450;2023-09-19T06:50:05;16.60;99.90
21815;DHT22;11069;48.988;8.450;2023-09-19T06:52:32;16.70;99.90
21815;DHT22;11069;48.988;8.450;2023-09-19T06:54:58;16.70;99.90
21815;DHT22;11069;48.988;8.450;2023-09-19T06:57:24;16.70;99.90
21815;DHT22;11069;48.988;8.450;2023-09-19T06:59:50;16.80;99.90
21815;DHT22;11069;48.988;8.450;2023-09-19T07:02:15;16.80;99.90
21815;DHT22;11069;48.988;8.450;2023-09-19T07:04:41;16.70;99.90
21815;DHT22;11069;48.988;8.450;2023-09-19T07:07:07;16.80;99.90
21815;DHT22;11069;48.988;8.450;2023-09-19T07:09:34;16.90;99.90
21815;DHT22;11069;48.988;8.450;2023-09-19T07:12:00;17.00;99.90
21815;DHT22;11069;48.988;8.450;2023-09-19T07:14:26;17.00;99.90
21815;DHT22;11069;48.988;8.450;2023-09-19T07:16:52;17.00;99.90
21815;DHT22;11069;48.988;8.450;2023-09-19T07:19:18;17.10;99.90
21815;DHT22;11069;48.988;8.450;2023-09-19T07:21:43;17.30;99.90
21815;DHT22;11069;48.988;8.450;2023-09-19T07:24:09;17.40;99.90
21815;DHT22;11069;48.988;8.450;2023-09-19T07:26:34;17.60;99.90
21815;DHT22;11069;48.988;8.450;2023-09-19T07:29:00;17.90;99.90
21815;DHT22;11069;48.988;8.450;2023-09-19T07:31:29;18.30;99.90
21815;DHT22;11069;48.988;8.450;2023-09-19T07:33:55;18.50;99.90
21815;DHT22;11069;48.988;8.450;2023-09-19T07:36:20;18.60;99.90
21815;DHT22;11069;48.988;8.450;2023-09-19T07:38:46;18.50;99.90
21815;DHT22;11069;48.988;8.450;2023-09-19T07:41:13;18.50;99.90
21815;DHT22;11069;48.988;8.450;2023-09-19T07:43:39;18.70;99.90
21815;DHT22;11069;48.988;8.450;2023-09-19T07:46:08;18.80;99.90
21815;DHT22;11069;48.988;8.450;2023-09-19T07:48:38;19.10;99.90
21815;DHT22;11069;48.988;8.450;2023-09-19T07:51:05;19.30;99.90
21815;DHT22;11069;48.988;8.450;2023-09-19T07:53:32;19.70;99.90
21815;DHT22;11069;48.988;8.450;2023-09-19T07:56:06;19.90;99.90
21815;DHT22;11069;48.988;8.450;2023-09-19T07:58:33;19.90;99.90
21815;DHT22;11069;48.988;8.450;2023-09-19T08:01:03;19.70;99.90
21815;DHT22;11069;48.988;8.450;2023-09-19T08:03:29;19.80;99.90
21815;DHT22;11069;48.988;8.450;2023-09-19T08:05:56;19.80;99.90
21815;DHT22;11069;48.988;8.450;2023-09-19T08:08:28;19.80;99.90
21815;DHT22;11069;48.988;8.450;2023-09-19T08:10:55;19.80;99.90
21815;DHT22;11069;48.988;8.450;2023-09-19T08:13:22;19.90;99.90
21815;DHT22;11069;48.988;8.450;2023-09-19T08:15:48;19.90;99.90
21815;DHT22;11069;48.988;8.450;2023-09-19T08:18:15;19.80;99.90
21815;DHT22;11069;48.988;8.450;2023-09-19T08:20:41;20.20;99.90
21815;DHT22;11069;48.988;8.450;2023-09-19T08:23:11;20.20;99.90
21815;DHT22;11069;48.988;8.450;2023-09-19T08:25:37;20.30;99.90
21815;DHT22;11069;48.988;8.450;2023-09-19T08:28:04;20.50;99.90
21815;DHT22;11069;48.988;8.450;2023-09-19T08:30:34;20.00;99.90
21815;DHT22;11069;48.988;8.450;2023-09-19T08:33:00;19.70;99.90
21815;DHT22;11069;48.988;8.450;2023-09-19T08:35:27;19.70;99.90
21815;DHT22;11069;48.988;8.450;2023-09-19T08:37:53;20.00;99.90
21815;DHT22;11069;48.988;8.450;2023-09-19T08:40:18;20.00;99.90
21815;DHT22;11069;48.988;8.450;2023-09-19T08:42:55;19.70;99.90
21815;DHT22;11069;48.988;8.450;2023-09-19T08:45:22;19.60;99.90
21815;DHT22;11069;48.988;8.450;2023-09-19T08:48:20;19.30;99.90
21815;DHT22;11069;48.988;8.450;2023-09-19T08:51:07;19.20;99.90
21815;DHT22;11069;48.988;8.450;2023-09-19T08:53:51;19.20;99.90
21815;DHT22;11069;48.988;8.450;2023-09-19T08:56:17;19.20;99.90
21815;DHT22;11069;48.988;8.450;2023-09-19T08:58:50;19.20;99.90
21815;DHT22;11069;48.988;8.450;2023-09-19T09:01:21;19.00;99.90
21815;DHT22;11069;48.988;8.450;2023-09-19T09:03:58;18.90;99.90
21815;DHT22;11069;48.988;8.450;2023-09-19T09:06:25;19.00;99.90
21815;DHT22;11069;48.988;8.450;2023-09-19T09:08:51;19.20;99.90
21815;DHT22;11069;48.988;8.450;2023-09-19T09:11:18;19.60;99.90
21815;DHT22;11069;48.988;8.450;2023-09-19T09:13:44;20.10;99.90
21815;DHT22;11069;48.988;8.450;2023-09-19T09:16:11;20.70;99.90
21815;DHT22;11069;48.988;8.450;2023-09-19T09:18:38;21.50;99.90
21815;DHT22;11069;48.988;8.450;2023-09-19T09:21:04;21.60;99.90
21815;DHT22;11069;48.988;8.450;2023-09-19T09:23:33;21.90;99.90
21815;DHT22;11069;48.988;8.450;2023-09-19T09:25:59;21.50;99.90
21815;DHT22;11069;48.988;8.450;2023-09-19T09:28:30;21.40;99.90
21815;DHT22;11069;48.988;8.450;2023-09-19T09:31:00;21.60;99.90
21815;DHT22;11069;48.988;8.450;2023-09-19T09:33:33;21.30;99.90
21815;DHT22;11069;48.988;8.450;2023-09-19T09:36:01;21.10;99.90
21815;DHT22;11069;48.988;8.450;2023-09-19T09:38:45;21.10;99.90
21815;DHT22;11069;48.988;8.450;2023-09-19T09:41:12;21.50;99.90
21815;DHT22;11069;48.988;8.450;2023-09-19T09:43:42;21.80;99.90
21815;DHT22;11069;48.988;8.450;2023-09-19T09:46:19;21.50;99.90
21815;DHT22;11069;48.988;8.450;2023-09-19T09:51:38;20.50;99.90
21815;DHT22;11069;48.988;8.450;2023-09-19T09:54:15;20.40;99.90
21815;DHT22;11069;48.988;8.450;2023-09-19T09:56:57;20.30;99.90
21815;DHT22;11069;48.988;8.450;2023-09-19T10:02:30;21.40;99.90
21815;DHT22;11069;48.988;8.450;2023-09-19T10:05:19;21.40;99.90
21815;DHT22;11069;48.988;8.450;2023-09-19T10:08:11;21.40;99.90
21815;DHT22;11069;48.988;8.450;2023-09-19T10:10:47;22.10;99.90
21815;DHT22;11069;48.988;8.450;2023-09-19T10:13:31;22.40;99.90
21815;DHT22;11069;48.988;8.450;2023-09-19T10:16:06;22.80;99.90
21815;DHT22;11069;48.988;8.450;2023-09-19T10:18:36;23.00;99.90
21815;DHT22;11069;48.988;8.450;2023-09-19T10:21:04;22.90;99.90
21815;DHT22;11069;48.988;8.450;2023-09-19T10:23:32;23.00;99.90
21815;DHT22;11069;48.988;8.450;2023-09-19T10:26:01;22.70;99.30
21815;DHT22;11069;48.988;8.450;2023-09-19T10:28:28;22.50;99.60
21815;DHT22;11069;48.988;8.450;2023-09-19T10:30:57;22.90;99.90
21815;DHT22;11069;48.988;8.450;2023-09-19T10:33:24;23.20;99.40
21815;DHT22;11069;48.988;8.450;2023-09-19T10:35:57;23.50;99.20
21815;DHT22;11069;48.988;8.450;2023-09-19T10:38:26;23.60;98.60
21815;DHT22;11069;48.988;8.450;2023-09-19T10:40:55;22.90;98.80
21815;DHT22;11069;48.988;8.450;2023-09-19T10:43:32;22.50;99.80
21815;DHT22;11069;48.988;8.450;2023-09-19T10:46:07;22.30;99.90
21815;DHT22;11069;48.988;8.450;2023-09-19T10:48:36;21.70;99.90
21815;DHT22;11069;48.988;8.450;2023-09-19T10:51:05;21.00;99.90
21815;DHT22;11069;48.988;8.450;2023-09-19T10:54:08;20.80;99.90
21815;DHT22;11069;48.988;8.450;2023-09-19T10:56:42;21.20;99.90
21815;DHT22;11069;48.988;8.450;2023-09-19T10:59:12;21.60;99.90
21815;DHT22;11069;48.988;8.450;2023-09-19T11:01:51;22.30;99.90
21815;DHT22;11069;48.988;8.450;2023-09-19T11:15:04;22.70;98.80
21815;DHT22;11069;48.988;8.450;2023-09-19T11:17:38;22.90;98.20
21815;DHT22;11069;48.988;8.450;2023-09-19T11:30:39;23.70;97.10
21815;DHT22;11069;48.988;8.450;2023-09-19T11:33:30;24.10;97.50
21815;DHT22;11069;48.988;8.450;2023-09-19T11:36:05;24.40;96.90
21815;DHT22;11069;48.988;8.450;2023-09-19T11:43:48;23.20;98.50
21815;DHT22;11069;48.988;8.450;2023-09-19T11:46:16;22.70;98.60
21815;DHT22;11069;48.988;8.450;2023-09-19T11:48:48;22.60;99.10
21815;DHT22;11069;48.988;8.450;2023-09-19T11:51:16;22.40;98.90
21815;DHT22;11069;48.988;8.450;2023-09-19T11:53:56;22.70;99.30
21815;DHT22;11069;48.988;8.450;2023-09-19T11:56:23;23.00;98.50
21815;DHT22;11069;48.988;8.450;2023-09-19T11:58:52;23.40;99.50
21815;DHT22;11069;48.988;8.450;2023-09-19T12:01:30;23.70;97.60
21815;DHT22;11069;48.988;8.450;2023-09-19T12:03:59;23.70;96.00
21815;DHT22;11069;48.988;8.450;2023-09-19T12:06:26;23.70;96.70
21815;DHT22;11069;48.988;8.450;2023-09-19T12:08:53;23.30;97.90
21815;DHT22;11069;48.988;8.450;2023-09-19T12:11:30;23.30;96.30
21815;DHT22;11069;48.988;8.450;2023-09-19T12:14:03;22.70;97.20
21815;DHT22;11069;48.988;8.450;2023-09-19T12:16:32;22.00;98.70
21815;DHT22;11069;48.988;8.450;2023-09-19T12:19:18;22.10;99.50
21815;DHT22;11069;48.988;8.450;2023-09-19T12:22:00;22.00;99.50
21815;DHT22;11069;48.988;8.450;2023-09-19T12:24:34;22.10;99.70
21815;DHT22;11069;48.988;8.450;2023-09-19T12:27:05;22.80;97.90
21815;DHT22;11069;48.988;8.450;2023-09-19T12:29:48;23.40;96.70
21815;DHT22;11069;48.988;8.450;2023-09-19T12:32:15;23.70;98.20
21815;DHT22;11069;48.988;8.450;2023-09-19T12:34:52;24.40;96.70
21815;DHT22;11069;48.988;8.450;2023-09-19T12:37:21;24.20;95.00
21815;DHT22;11069;48.988;8.450;2023-09-19T12:39:49;24.20;96.20
21815;DHT22;11069;48.988;8.450;2023-09-19T12:42:23;24.00;94.60
21815;DHT22;11069;48.988;8.450;2023-09-19T12:44:51;23.90;94.50
21815;DHT22;11069;48.988;8.450;2023-09-19T12:47:22;24.40;95.10
21815;DHT22;11069;48.988;8.450;2023-09-19T12:50:12;24.50;95.00
21815;DHT22;11069;48.988;8.450;2023-09-19T12:52:48;24.50;96.30
21815;DHT22;11069;48.988;8.450;2023-09-19T13:00:38;23.10;96.10
21815;DHT22;11069;48.988;8.450;2023-09-19T13:05:57;23.60;96.30
21815;DHT22;11069;48.988;8.450;2023-09-19T13:08:28;24.20;97.50
21815;DHT22;11069;48.988;8.450;2023-09-19T13:11:18;24.60;94.70
21815;DHT22;11069;48.988;8.450;2023-09-19T13:13:48;24.70;93.60
21815;DHT22;11069;48.988;8.450;2023-09-19T13:16:15;24.90;93.50
21815;DHT22;11069;48.988;8.450;2023-09-19T13:18:53;25.30;94.40
21815;DHT22;11069;48.988;8.450;2023-09-19T13:21:48;25.60;93.00
21815;DHT22;11069;48.988;8.450;2023-09-19T13:24:24;25.60;92.20
21815;DHT22;11069;48.988;8.450;2023-09-19T13:26:53;25.50;94.10
21815;DHT22;11069;48.988;8.450;2023-09-19T13:29:19;25.50;92.70
21815;DHT22;11069;48.988;8.450;2023-09-19T13:34:14;25.10;92.40
21815;DHT22;11069;48.988;8.450;2023-09-19T13:36:43;25.20;93.70
21815;DHT22;11069;48.988;8.450;2023-09-19T13:39:09;25.50;94.10
21815;DHT22;11069;48.988;8.450;2023-09-19T13:41:38;25.60;93.10
21815;DHT22;11069;48.988;8.450;2023-09-19T13:44:10;25.90;91.80
21815;DHT22;11069;48.988;8.450;2023-09-19T13:46:36;25.90;91.80
21815;DHT22;11069;48.988;8.450;2023-09-19T13:49:03;25.50;91.40
21815;DHT22;11069;48.988;8.450;2023-09-19T13:51:31;25.50;91.50
21815;DHT22;11069;48.988;8.450;2023-09-19T13:53:58;25.80;91.80
21815;DHT22;11069;48.988;8.450;2023-09-19T13:56:25;25.80;93.30
21815;DHT22;11069;48.988;8.450;2023-09-19T13:58:53;25.60;91.10
21815;DHT22;11069;48.988;8.450;2023-09-19T14:01:19;25.20;92.30
21815;DHT22;11069;48.988;8.450;2023-09-19T14:03:45;25.30;91.30
21815;DHT22;11069;48.988;8.450;2023-09-19T14:06:17;25.80;91.70
21815;DHT22;11069;48.988;8.450;2023-09-19T14:08:43;25.90;92.80
21815;DHT22;11069;48.988;8.450;2023-09-19T14:11:15;25.40;90.30
21815;DHT22;11069;48.988;8.450;2023-09-19T14:13:42;24.30;92.30
21815;DHT22;11069;48.988;8.450;2023-09-19T14:16:12;24.60;92.60
21815;DHT22;11069;48.988;8.450;2023-09-19T14:18:38;24.90;90.80
21815;DHT22;11069;48.988;8.450;2023-09-19T14:21:05;24.40;92.10
21815;DHT22;11069;48.988;8.450;2023-09-19T14:23:39;24.00;92.40
21815;DHT22;11069;48.988;8.450;2023-09-19T14:26:09;23.80;93.20
21815;DHT22;11069;48.988;8.450;2023-09-19T14:28:35;24.00;93.90
21815;DHT22;11069;48.988;8.450;2023-09-19T14:31:08;24.60;94.60
21815;DHT22;11069;48.988;8.450;2023-09-19T14:33:34;25.60;91.50
21815;DHT22;11069;48.988;8.450;2023-09-19T14:36:07;25.80;90.30
21815;DHT22;11069;48.988;8.450;2023-09-19T14:38:35;26.00;89.30
21815;DHT22;11069;48.988;8.450;2023-09-19T14:41:05;26.00;90.00
21815;DHT22;11069;48.988;8.450;2023-09-19T14:43:31;25.70;90.00
21815;DHT22;11069;48.988;8.450;2023-09-19T14:46:04;25.70;90.00
21815;DHT22;11069;48.988;8.450;2023-09-19T14:48:30;25.60;92.10
21815;DHT22;11069;48.988;8.450;2023-09-19T14:51:07;25.30;91.10
21815;DHT22;11069;48.988;8.450;2023-09-19T14:53:37;25.00;90.60
21815;DHT22;11069;48.988;8.450;2023-09-19T14:56:04;24.40;91.80
21815;DHT22;11069;48.988;8.450;2023-09-19T14:58:31;24.10;91.90
21815;DHT22;11069;48.988;8.450;2023-09-19T15:03:29;23.60;92.60
21815;DHT22;11069;48.988;8.450;2023-09-19T15:06:02;23.30;93.20
21815;DHT22;11069;48.988;8.450;2023-09-19T15:08:33;23.30;94.10
21815;DHT22;11069;48.988;8.450;2023-09-19T15:11:03;23.40;93.30
21815;DHT22;11069;48.988;8.450;2023-09-19T15:13:31;23.20;93.80
21815;DHT22;11069;48.988;8.450;2023-09-19T15:16:07;23.10;93.70
21815;DHT22;11069;48.988;8.450;2023-09-19T15:18:46;23.10;93.90
21815;DHT22;11069;48.988;8.450;2023-09-19T15:21:14;23.00;94.40
21815;DHT22;11069;48.988;8.450;2023-09-19T15:23:42;23.00;94.30
21815;DHT22;11069;48.988;8.450;2023-09-19T15:26:10;23.00;95.00
21815;DHT22;11069;48.988;8.450;2023-09-19T15:28:37;23.10;95.10
21815;DHT22;11069;48.988;8.450;2023-09-19T15:31:08;23.20;95.60
21815;DHT22;11069;48.988;8.450;2023-09-19T15:33:34;23.20;95.00
21815;DHT22;11069;48.988;8.450;2023-09-19T15:38:27;23.00;95.10
21815;DHT22;11069;48.988;8.450;2023-09-19T15:40:53;22.90;96.50
21815;DHT22;11069;48.988;8.450;2023-09-19T15:43:19;22.90;95.20
21815;DHT22;11069;48.988;8.450;2023-09-19T15:45:46;22.80;95.00
21815;DHT22;11069;48.988;8.450;2023-09-19T15:48:13;22.80;95.80
21815;DHT22;11069;48.988;8.450;2023-09-19T15:50:39;22.80;96.10
21815;DHT22;11069;48.988;8.450;2023-09-19T15:53:07;22.80;96.70
21815;DHT22;11069;48.988;8.450;2023-09-19T15:55:39;22.70;96.60
21815;DHT22;11069;48.988;8.450;2023-09-19T15:58:05;22.60;97.60
21815;DHT22;11069;48.988;8.450;2023-09-19T16:00:34;22.50;95.90
21815;DHT22;11069;48.988;8.450;2023-09-19T16:03:00;22.40;98.10
21815;DHT22;11069;48.988;8.450;2023-09-19T16:05:27;22.30;97.00
21815;DHT22;11069;48.988;8.450;2023-09-19T16:07:53;22.30;97.80
21815;DHT22;11069;48.988;8.450;2023-09-19T16:10:28;22.30;99.70
21815;DHT22;11069;48.988;8.450;2023-09-19T16:12:54;22.30;99.10
21815;DHT22;11069;48.988;8.450;2023-09-19T16:15:23;22.30;99.90
21815;DHT22;11069;48.988;8.450;2023-09-19T16:17:58;22.30;99.90
21815;DHT22;11069;48.988;8.450;2023-09-19T16:20:30;22.10;98.90
21815;DHT22;11069;48.988;8.450;2023-09-19T16:23:01;22.00;99.90
21815;DHT22;11069;48.988;8.450;2023-09-19T16:25:27;22.00;99.90
21815;DHT22;11069;48.988;8.450;2023-09-19T16:28:02;22.00;99.90
21815;DHT22;11069;48.988;8.450;2023-09-19T16:30:31;21.80;99.90
21815;DHT22;11069;48.988;8.450;2023-09-19T16:32:59;21.80;99.90
21815;DHT22;11069;48.988;8.450;2023-09-19T16:35:28;21.80;99.90
21815;DHT22;11069;48.988;8.450;2023-09-19T16:38:15;21.80;99.90
21815;DHT22;11069;48.988;8.450;2023-09-19T16:40:54;21.70;99.90
21815;DHT22;11069;48.988;8.450;2023-09-19T16:43:26;21.60;99.90
21815;DHT22;11069;48.988;8.450;2023-09-19T16:46:04;21.50;99.90
21815;DHT22;11069;48.988;8.450;2023-09-19T16:48:31;21.50;99.90